Time;durP1;ratioP1;P1;durP2;ratioP2;P2;SDS_P1;SDS_P2;PMS_P1;PMS_P2;Temp;Humidity;BMP_temperature;BMP_pressure;BME280_temperature;BME280_humidity;BME280_pressure;Samples;Min_cycle;Max_cycle;Signal;HPM_P1;HPM_P2
2022/12/03 00:01:43;;;;;;;129.77;53.38;;;4.20;99.90;;;;;;5074898;28;20443;-76
2022/12/03 00:04:09;;;;;;;127.50;53.72;;;4.20;99.90;;;;;;5074573;28;20352;-77
2022/12/03 00:06:35;;;;;;;137.15;54.55;;;4.20;99.90;;;;;;5073718;28;20372;-78
2022/12/03 00:09:01;;;;;;;127.75;51.22;;;4.10;99.90;;;;;;5074135;28;20021;-76
2022/12/03 00:11:27;;;;;;;121.20;50.35;;;4.10;99.90;;;;;;5074278;28;20024;-78
2022/12/03 00:13:53;;;;;;;111.35;48.90;;;4.10;99.90;;;;;;5074866;28;20115;-77
2022/12/03 00:16:18;;;;;;;152.32;56.53;;;4.10;99.90;;;;;;5074643;28;20047;-76
2022/12/03 00:18:44;;;;;;;151.35;56.70;;;4.10;99.90;;;;;;5074168;28;20024;-76
2022/12/03 00:21:10;;;;;;;175.27;64.15;;;4.10;99.90;;;;;;5074260;28;20032;-77
2022/12/03 00:23:35;;;;;;;122.63;51.50;;;4.00;99.90;;;;;;5074127;28;20036;-76
2022/12/03 00:26:01;;;;;;;116.57;49.72;;;4.00;99.90;;;;;;5073894;28;20103;-77
2022/12/03 00:28:27;;;;;;;107.60;45.85;;;3.90;99.90;;;;;;5068560;28;20359;-75
2022/12/03 00:30:53;;;;;;;91.10;39.92;;;3.90;99.90;;;;;;5074209;28;20107;-76
2022/12/03 00:33:19;;;;;;;105.28;43.53;;;3.80;99.90;;;;;;5074057;28;20054;-76
2022/12/03 00:35:45;;;;;;;146.75;59.03;;;3.80;99.90;;;;;;5074171;28;20031;-77
2022/12/03 00:38:11;;;;;;;97.75;42.13;;;3.90;99.90;;;;;;5072675;28;20032;-75
2022/12/03 00:40:37;;;;;;;99.90;43.40;;;3.80;99.90;;;;;;5074076;28;20028;-77
2022/12/03 00:43:03;;;;;;;121.82;48.70;;;3.80;99.90;;;;;;5074009;28;20029;-76
2022/12/03 00:45:29;;;;;;;134.60;56.72;;;3.80;99.90;;;;;;5073885;28;20032;-76
2022/12/03 00:47:55;;;;;;;143.40;59.13;;;3.80;99.90;;;;;;5073714;28;20024;-74
2022/12/03 00:50:20;;;;;;;93.75;44.67;;;3.80;99.90;;;;;;5074154;28;20097;-76
2022/12/03 00:52:46;;;;;;;93.38;44.15;;;3.70;99.90;;;;;;5073502;28;20039;-76
2022/12/03 00:55:12;;;;;;;87.82;42.05;;;3.70;99.90;;;;;;5073413;28;20115;-77
2022/12/03 00:57:38;;;;;;;92.57;41.42;;;3.70;99.90;;;;;;5074502;28;20031;-76
2022/12/03 01:00:05;;;;;;;92.60;43.30;;;3.70;99.90;;;;;;5074313;28;20028;-77
2022/12/03 01:02:31;;;;;;;109.72;47.58;;;3.70;99.90;;;;;;5074075;28;20025;-75
2022/12/03 01:04:57;;;;;;;107.03;47.58;;;3.60;99.90;;;;;;5073511;28;20040;-76
2022/12/03 01:07:23;;;;;;;102.85;45.50;;;3.60;99.90;;;;;;5073283;28;20025;-77
2022/12/03 01:09:48;;;;;;;117.50;50.40;;;3.60;99.90;;;;;;5074046;28;20332;-77
2022/12/03 01:12:14;;;;;;;137.23;58.33;;;3.60;99.90;;;;;;5073556;28;20366;-76
2022/12/03 01:14:40;;;;;;;131.75;54.75;;;3.60;99.90;;;;;;5073242;28;20151;-76
2022/12/03 01:17:06;;;;;;;102.80;42.55;;;3.60;99.90;;;;;;5073113;28;20044;-76
2022/12/03 01:19:34;;;;;;;95.93;39.60;;;3.50;99.90;;;;;;5072962;28;20340;-77
2022/12/03 01:22:00;;;;;;;107.13;41.92;;;3.50;99.90;;;;;;5073188;28;20028;-76
2022/12/03 01:24:26;;;;;;;105.30;42.85;;;3.50;99.90;;;;;;5073281;28;20024;-75
2022/12/03 01:26:52;;;;;;;105.10;43.97;;;3.50;99.90;;;;;;5073160;28;20085;-76
2022/12/03 01:29:18;;;;;;;106.20;43.75;;;3.50;99.90;;;;;;5073810;28;20029;-75
2022/12/03 01:34:28;;;;;;;118.10;49.17;;;3.50;99.90;;;;;;5073193;28;20031;-76
2022/12/03 01:36:54;;;;;;;111.25;49.40;;;3.50;99.90;;;;;;5073050;28;20028;-76
2022/12/03 01:39:19;;;;;;;120.80;49.55;;;3.50;99.90;;;;;;5073688;28;20035;-76
2022/12/03 01:41:47;;;;;;;115.03;48.55;;;3.40;99.90;;;;;;5073047;28;20017;-76
2022/12/03 01:44:37;;;;;;;95.80;43.05;;;3.40;99.90;;;;;;5073128;28;20086;-76
2022/12/03 01:47:06;;;;;;;87.57;40.58;;;3.40;99.90;;;;;;5072679;28;20044;-75
2022/12/03 01:49:53;;;;;;;73.45;35.80;;;3.40;99.90;;;;;;5072511;28;20467;-77
2022/12/03 01:52:23;;;;;;;72.70;33.58;;;3.40;99.90;;;;;;5072987;28;20020;-76
2022/12/03 01:55:00;;;;;;;64.30;30.55;;;3.40;99.90;;;;;;5072921;28;20086;-76
2022/12/03 01:57:38;;;;;;;66.10;32.58;;;3.30;99.90;;;;;;5073177;28;20455;-76
2022/12/03 02:00:06;;;;;;;70.63;34.17;;;3.30;99.90;;;;;;5073004;28;20031;-77
2022/12/03 02:02:32;;;;;;;74.28;34.42;;;3.30;99.90;;;;;;5072369;28;20387;-76
2022/12/03 02:04:59;;;;;;;86.80;40.78;;;3.30;99.90;;;;;;5072882;28;20028;-76
2022/12/03 02:07:31;;;;;;;77.60;35.75;;;3.30;99.90;;;;;;5077023;28;20036;-76
2022/12/03 02:10:00;;;;;;;71.88;32.42;;;3.30;99.90;;;;;;5076634;28;20031;-76
2022/12/03 02:12:42;;;;;;;71.50;33.30;;;3.20;99.90;;;;;;5075999;28;20067;-76
2022/12/03 02:15:09;;;;;;;;;;;3.20;99.90;;;;;;5071939;28;20498;-77
2022/12/03 02:17:35;;;;;;;77.50;35.95;;;3.20;99.90;;;;;;5077085;28;19911;-78
2022/12/03 02:20:04;;;;;;;89.70;40.70;;;3.20;99.90;;;;;;5076553;28;20095;-76
2022/12/03 02:22:54;;;;;;;72.15;32.92;;;3.20;99.90;;;;;;5076488;28;21536;-76
2022/12/03 02:25:22;;;;;;;63.33;29.63;;;3.20;99.90;;;;;;5075775;28;20051;-75
2022/12/03 02:27:48;;;;;;;64.22;30.17;;;3.10;99.90;;;;;;5076369;28;20027;-74
2022/12/03 02:30:18;;;;;;;63.35;27.88;;;3.10;99.90;;;;;;5076487;28;20028;-77
2022/12/03 02:32:44;;;;;;;59.83;29.83;;;3.20;99.90;;;;;;5076655;28;20104;-78
2022/12/03 02:35:35;;;;;;;62.10;29.38;;;3.20;99.90;;;;;;5076256;28;20028;-75
2022/12/03 02:38:15;;;;;;;60.67;28.75;;;3.20;99.90;;;;;;5073445;28;20485;-75
2022/12/03 02:40:42;;;;;;;68.03;30.27;;;3.20;99.90;;;;;;5076327;28;20364;-76
2022/12/03 02:43:09;;;;;;;57.42;28.15;;;3.10;99.90;;;;;;5074903;28;20032;-77
2022/12/03 02:45:38;;;;;;;61.08;28.63;;;3.10;99.90;;;;;;5074861;28;20113;-75
2022/12/03 02:48:14;;;;;;;56.97;28.20;;;3.10;99.90;;;;;;5076203;28;20043;-76
2022/12/03 02:50:44;;;;;;;65.43;28.73;;;3.10;99.90;;;;;;5076198;28;20085;-75
2022/12/03 02:53:19;;;;;;;62.78;29.98;;;3.10;99.90;;;;;;5076399;28;20021;-76
2022/12/03 02:55:46;;;;;;;63.88;29.38;;;3.10;99.90;;;;;;5075887;28;20024;-75
2022/12/03 02:58:12;;;;;;;58.47;29.65;;;3.10;99.90;;;;;;5076222;28;20142;-76
2022/12/03 03:00:38;;;;;;;62.35;29.42;;;3.10;99.90;;;;;;5075839;28;20027;-75
2022/12/03 03:03:06;;;;;;;64.05;28.55;;;3.10;99.90;;;;;;5076244;28;20031;-76
2022/12/03 03:05:34;;;;;;;57.97;28.10;;;3.10;99.90;;;;;;5075450;28;20047;-76
2022/12/03 03:08:00;;;;;;;53.08;26.55;;;3.10;99.90;;;;;;5076057;28;20028;-77
2022/12/03 03:10:27;;;;;;;51.42;25.33;;;3.00;99.90;;;;;;5075928;28;20016;-76
2022/12/03 03:12:55;;;;;;;47.97;24.55;;;3.00;99.90;;;;;;5075724;28;20036;-76
2022/12/03 03:15:22;;;;;;;45.20;22.52;;;3.00;99.90;;;;;;5075351;28;20378;-76
2022/12/03 03:17:48;;;;;;;46.47;23.40;;;3.00;99.90;;;;;;5074956;28;20021;-76
2022/12/03 03:20:14;;;;;;;43.92;23.00;;;3.10;99.90;;;;;;5075287;28;20111;-76
2022/12/03 03:22:41;;;;;;;46.97;25.25;;;3.00;99.90;;;;;;5075529;28;20021;-75
2022/12/03 03:25:11;;;;;;;45.95;24.00;;;3.00;99.90;;;;;;5075287;28;20363;-76
2022/12/03 03:27:39;;;;;;;47.40;22.75;;;2.90;99.90;;;;;;5075231;28;20064;-76
2022/12/03 03:30:06;;;;;;;52.42;26.52;;;2.90;99.90;;;;;;5075833;28;20052;-74
2022/12/03 03:32:33;;;;;;;54.88;25.83;;;2.90;99.90;;;;;;5076153;28;20103;-76
2022/12/03 03:34:58;;;;;;;46.35;24.95;;;2.90;99.90;;;;;;5074801;28;20024;-74
2022/12/03 03:37:25;;;;;;;49.20;24.08;;;2.90;99.90;;;;;;5075446;28;20021;-75
2022/12/03 03:39:51;;;;;;;52.22;27.65;;;2.90;99.90;;;;;;5074904;28;20502;-74
2022/12/03 03:42:17;;;;;;;55.60;27.80;;;3.10;99.90;;;;;;5075444;28;20017;-75
2022/12/03 03:44:43;;;;;;;57.72;27.73;;;3.00;99.90;;;;;;5074887;28;20032;-74
2022/12/03 03:47:09;;;;;;;64.03;29.25;;;3.00;99.90;;;;;;5075098;28;20028;-74
2022/12/03 03:49:35;;;;;;;62.55;30.08;;;2.90;99.90;;;;;;5075014;28;20099;-77
2022/12/03 03:52:01;;;;;;;68.70;29.45;;;2.80;99.90;;;;;;5075330;28;20042;-75
2022/12/03 03:54:27;;;;;;;59.22;29.70;;;2.80;99.90;;;;;;5074654;28;20040;-75
2022/12/03 03:56:53;;;;;;;62.80;29.65;;;2.80;99.90;;;;;;5075390;28;20028;-74
2022/12/03 03:59:19;;;;;;;66.13;30.30;;;2.80;99.90;;;;;;5074729;28;20443;-75
2022/12/03 04:01:45;;;;;;;66.00;29.85;;;2.70;99.90;;;;;;5074476;28;20024;-75
2022/12/03 04:04:34;;;;;;;64.35;30.75;;;2.70;99.90;;;;;;5075101;28;20034;-75
2022/12/03 04:06:59;;;;;;;66.60;30.08;;;2.70;99.90;;;;;;5070441;28;20028;-75
2022/12/03 04:09:25;;;;;;;64.38;31.45;;;2.70;99.90;;;;;;5074524;28;20035;-74
2022/12/03 04:14:35;;;;;;;69.90;32.22;;;2.70;99.90;;;;;;5074583;28;20097;-74
2022/12/03 04:17:01;;;;;;;68.90;32.88;;;2.70;99.90;;;;;;5074893;28;20072;-75
2022/12/03 04:19:26;;;;;;;68.10;32.13;;;2.70;99.90;;;;;;5074582;28;20028;-75
2022/12/03 04:24:36;;;;;;;77.60;33.42;;;2.60;99.90;;;;;;5074296;28;20474;-75
2022/12/03 04:29:46;;;;;;;77.32;35.38;;;2.60;99.90;;;;;;5073157;28;20031;-75
2022/12/03 04:37:40;;;;;;;76.25;36.25;;;2.50;99.90;;;;;;5073902;28;20105;-76
2022/12/03 04:40:59;;;;;;;84.45;37.95;;;2.50;99.90;;;;;;5074037;28;20440;-75
2022/12/03 04:42:52;;;;;;;86.75;39.08;;;2.50;99.90;;;;;;5073541;28;20483;-74
2022/12/03 04:45:18;;;;;;;89.53;39.15;;;2.50;99.90;;;;;;5074330;28;20025;-75
2022/12/03 04:47:44;;;;;;;75.10;34.08;;;2.40;99.90;;;;;;5074073;28;20099;-76
2022/12/03 04:50:10;;;;;;;80.32;35.58;;;2.40;99.90;;;;;;5073477;28;20094;-75
2022/12/03 04:52:36;;;;;;;78.82;34.33;;;2.40;99.90;;;;;;5073985;28;20099;-75
2022/12/03 04:55:02;;;;;;;75.20;33.30;;;2.40;99.90;;;;;;5073905;28;20108;-76
2022/12/03 04:57:27;;;;;;;65.47;30.75;;;2.40;99.90;;;;;;5073360;28;20055;-75
2022/12/03 04:59:53;;;;;;;54.13;27.98;;;2.40;99.90;;;;;;5073670;28;20468;-75
2022/12/03 05:02:19;;;;;;;53.38;27.55;;;2.40;99.90;;;;;;5073711;28;20501;-76
2022/12/03 05:04:44;;;;;;;60.20;29.08;;;2.30;99.90;;;;;;5073969;28;20352;-75
2022/12/03 05:07:10;;;;;;;55.90;28.85;;;2.30;99.90;;;;;;5073876;28;20513;-76
2022/12/03 05:09:36;;;;;;;64.65;30.20;;;2.30;99.90;;;;;;5073621;28;20024;-75
2022/12/03 05:12:02;;;;;;;55.92;29.58;;;2.30;99.90;;;;;;5073269;28;20056;-75
2022/12/03 05:14:28;;;;;;;61.33;32.72;;;2.30;99.90;;;;;;5073966;28;20092;-75
2022/12/03 05:16:54;;;;;;;66.00;32.05;;;2.30;99.90;;;;;;5073051;28;20440;-76
2022/12/03 05:19:20;;;;;;;65.32;32.33;;;2.30;99.90;;;;;;5073647;28;20525;-74
2022/12/03 05:21:45;;;;;;;71.53;33.30;;;2.30;99.90;;;;;;5067234;28;20017;-77
2022/12/03 05:24:11;;;;;;;68.30;32.45;;;2.30;99.90;;;;;;5073608;28;20028;-75
2022/12/03 05:26:37;;;;;;;67.88;32.20;;;2.20;99.90;;;;;;5073364;28;20099;-75
2022/12/03 05:29:03;;;;;;;73.70;34.63;;;2.20;99.90;;;;;;5073554;28;20059;-76
2022/12/03 05:31:28;;;;;;;83.45;41.72;;;2.20;99.90;;;;;;5072214;28;20020;-75
2022/12/03 05:33:54;;;;;;;98.63;46.92;;;2.20;99.90;;;;;;5073415;28;20549;-76
2022/12/03 05:36:20;;;;;;;104.90;47.10;;;2.20;99.90;;;;;;5073210;28;20492;-74
2022/12/03 05:38:46;;;;;;;105.97;47.10;;;2.20;99.90;;;;;;5073157;28;20021;-76
2022/12/03 05:43:55;;;;;;;109.60;49.65;;;2.20;99.90;;;;;;5072832;28;20074;-76
2022/12/03 05:46:21;;;;;;;125.22;59.05;;;2.20;99.90;;;;;;5072499;28;20036;-75
2022/12/03 05:48:47;;;;;;;167.27;76.68;;;2.20;99.90;;;;;;5073235;28;20032;-77
2022/12/03 05:51:13;;;;;;;152.70;74.47;;;2.10;99.90;;;;;;5072536;28;20096;-76
2022/12/03 05:53:39;;;;;;;216.52;101.18;;;2.20;99.90;;;;;;5072954;28;20033;-76
2022/12/03 05:56:05;;;;;;;207.88;97.75;;;2.10;99.90;;;;;;5072802;28;20039;-76
2022/12/03 05:58:31;;;;;;;200.40;89.13;;;2.10;99.90;;;;;;5072848;28;20024;-76
2022/12/03 06:00:56;;;;;;;194.13;88.03;;;2.10;99.90;;;;;;5068976;28;20024;-76
2022/12/03 06:03:22;;;;;;;202.18;93.55;;;2.10;99.90;;;;;;5072933;28;20016;-77
2022/12/03 06:05:48;;;;;;;179.13;87.80;;;2.10;99.90;;;;;;5071484;28;20122;-76
2022/12/03 06:08:13;;;;;;;185.80;89.28;;;2.10;99.90;;;;;;5072443;28;20028;-77
2022/12/03 06:10:39;;;;;;;170.95;75.65;;;2.20;99.90;;;;;;5072947;28;20028;-77
2022/12/03 06:13:05;;;;;;;167.35;80.07;;;2.10;99.90;;;;;;5072889;28;20101;-76
2022/12/03 06:15:31;;;;;;;160.98;79.93;;;2.20;99.90;;;;;;5072495;28;20428;-78
2022/12/03 06:17:56;;;;;;;159.45;76.60;;;2.10;99.90;;;;;;5072537;28;20470;-77
2022/12/03 06:20:22;;;;;;;160.68;77.28;;;2.10;99.90;;;;;;5073198;28;20489;-76
2022/12/03 06:22:48;;;;;;;151.82;72.20;;;2.10;99.90;;;;;;5072297;28;20487;-76
2022/12/03 06:25:15;;;;;;;139.15;68.25;;;2.10;99.90;;;;;;5072870;28;20096;-79
2022/12/03 06:27:40;;;;;;;158.40;72.10;;;2.10;99.90;;;;;;5072341;28;20032;-78
2022/12/03 06:30:07;;;;;;;150.40;73.22;;;2.20;99.90;;;;;;5071712;28;20027;-77
2022/12/03 06:32:33;;;;;;;185.50;87.40;;;2.20;99.90;;;;;;5072678;28;20020;-77
2022/12/03 06:34:59;;;;;;;178.55;85.28;;;2.30;99.90;;;;;;5072766;28;20079;-77
2022/12/03 06:37:25;;;;;;;171.18;83.25;;;2.30;99.90;;;;;;5072681;28;20074;-76
2022/12/03 06:39:50;;;;;;;144.23;68.63;;;2.30;99.90;;;;;;5072744;28;20024;-76
2022/12/03 06:42:16;;;;;;;132.27;63.55;;;2.40;99.90;;;;;;5072217;28;20028;-77
2022/12/03 06:44:42;;;;;;;146.32;69.43;;;2.40;99.90;;;;;;5072366;28;20036;-77
2022/12/03 06:47:08;;;;;;;134.48;62.92;;;2.50;99.90;;;;;;5070999;28;20024;-77
2022/12/03 06:49:33;;;;;;;117.70;54.47;;;2.50;99.90;;;;;;5072029;28;20029;-77
2022/12/03 06:51:59;;;;;;;111.03;54.85;;;2.60;99.90;;;;;;5074104;28;20561;-76
2022/12/03 06:54:25;;;;;;;105.68;54.38;;;2.80;99.90;;;;;;5075925;28;20059;-76
2022/12/03 06:56:51;;;;;;;102.20;49.70;;;2.90;99.90;;;;;;5075953;28;20021;-76
2022/12/03 06:59:16;;;;;;;105.43;47.03;;;3.00;99.90;;;;;;5076154;28;20455;-75
2022/12/03 07:01:42;;;;;;;112.40;51.83;;;3.00;99.90;;;;;;5076055;28;20062;-76
2022/12/03 07:04:08;;;;;;;119.07;54.08;;;3.00;99.90;;;;;;5076100;28;20409;-77
2022/12/03 07:06:34;;;;;;;113.28;52.08;;;3.10;99.90;;;;;;5076059;28;20032;-76
2022/12/03 07:09:00;;;;;;;131.70;58.35;;;3.20;99.90;;;;;;5075653;28;20447;-77
2022/12/03 07:11:31;;;;;;;136.23;65.03;;;3.20;99.90;;;;;;5075795;28;20079;-75
2022/12/03 07:13:59;;;;;;;141.43;68.18;;;3.20;99.90;;;;;;5075587;28;20028;-76
2022/12/03 07:16:25;;;;;;;149.32;73.97;;;3.40;99.90;;;;;;5074169;28;20071;-76
2022/12/03 07:18:50;;;;;;;191.10;91.60;;;3.40;99.90;;;;;;5075594;28;20029;-77
2022/12/03 07:21:16;;;;;;;210.75;99.15;;;3.60;99.90;;;;;;5076153;28;20035;-76
2022/12/03 07:23:42;;;;;;;196.00;97.13;;;3.70;99.90;;;;;;5075358;28;20025;-76
2022/12/03 07:26:08;;;;;;;182.95;88.30;;;3.80;99.90;;;;;;5074971;28;20052;-76
2022/12/03 07:28:34;;;;;;;254.63;120.53;;;3.90;99.90;;;;;;5075549;28;20025;-77
2022/12/03 07:30:59;;;;;;;283.13;142.77;;;4.00;99.90;;;;;;5074889;28;20444;-76
2022/12/03 07:33:25;;;;;;;421.23;215.02;;;4.10;99.90;;;;;;5075562;28;20036;-76
2022/12/03 07:35:51;;;;;;;323.15;155.20;;;4.10;99.90;;;;;;5075302;28;20021;-77
2022/12/03 07:38:17;;;;;;;211.60;100.07;;;4.20;99.90;;;;;;5075284;28;20031;-77
2022/12/03 07:40:43;;;;;;;194.50;98.32;;;4.20;99.90;;;;;;5075453;28;20028;-76
2022/12/03 07:43:09;;;;;;;215.55;117.38;;;4.30;99.90;;;;;;5074001;28;20021;-77
2022/12/03 07:45:35;;;;;;;126.82;63.72;;;4.40;99.90;;;;;;5074976;28;20032;-78
2022/12/03 07:48:01;;;;;;;140.23;71.00;;;4.40;99.90;;;;;;5075262;28;20103;-76
2022/12/03 07:50:27;;;;;;;131.30;63.85;;;4.40;99.90;;;;;;5073871;28;20029;-75
2022/12/03 07:52:53;;;;;;;187.40;88.78;;;4.50;99.90;;;;;;5075425;28;20031;-76
2022/12/03 07:55:20;;;;;;;165.40;83.35;;;4.60;99.90;;;;;;5075418;28;20490;-77
2022/12/03 07:57:45;;;;;;;123.93;59.92;;;4.60;99.90;;;;;;5075581;28;20108;-76
2022/12/03 08:00:12;;;;;;;210.75;105.47;;;4.60;99.90;;;;;;5074525;28;20027;-76
2022/12/03 08:02:38;;;;;;;156.40;82.30;;;4.70;99.90;;;;;;5074094;28;20078;-77
2022/12/03 08:05:04;;;;;;;309.58;161.20;;;4.60;99.90;;;;;;5074008;28;20028;-77
2022/12/03 08:07:30;;;;;;;152.70;79.25;;;4.70;99.90;;;;;;5074157;28;20024;-77
2022/12/03 08:09:56;;;;;;;147.65;86.60;;;4.70;99.90;;;;;;5074593;28;20441;-76
2022/12/03 08:12:39;;;;;;;114.57;59.17;;;4.90;99.90;;;;;;5074746;28;20022;-76
2022/12/03 08:15:19;;;;;;;162.73;85.57;;;4.80;99.90;;;;;;5074404;28;20036;-76
2022/12/03 08:17:50;;;;;;;216.13;98.03;;;4.60;99.90;;;;;;5074747;28;20036;-78
2022/12/03 08:20:19;;;;;;;128.83;60.17;;;4.60;99.90;;;;;;5074092;28;20380;-77
2022/12/03 08:22:48;;;;;;;141.85;68.57;;;4.60;99.90;;;;;;5074469;28;20732;-77
2022/12/03 08:25:21;;;;;;;108.28;54.13;;;4.60;99.90;;;;;;5074100;28;20052;-77
2022/12/03 08:28:13;;;;;;;126.93;66.30;;;4.70;99.90;;;;;;5051251;28;20037;-78
2022/12/03 08:30:43;;;;;;;151.73;76.63;;;4.90;99.90;;;;;;5075234;28;20029;-76
2022/12/03 08:33:34;;;;;;;131.70;62.97;;;5.10;99.90;;;;;;5074188;28;20347;-76
2022/12/03 08:36:20;;;;;;;123.95;63.00;;;5.20;99.90;;;;;;5074903;28;20052;-77
2022/12/03 08:38:50;;;;;;;128.57;67.18;;;5.30;99.90;;;;;;5072606;28;20352;-76
2022/12/03 08:44:24;;;;;;;113.22;61.55;;;5.50;99.90;;;;;;5059041;28;20514;-77
2022/12/03 08:47:05;;;;;;;64.32;36.85;;;5.50;99.90;;;;;;5073963;28;20016;-77
2022/12/03 08:49:31;;;;;;;60.20;33.97;;;5.30;99.90;;;;;;5073999;28;20024;-78
2022/12/03 08:52:00;;;;;;;57.40;32.47;;;5.40;99.90;;;;;;5073927;28;20008;-77
2022/12/03 08:54:26;;;;;;;80.15;43.63;;;5.30;99.90;;;;;;5073709;28;20024;-78
2022/12/03 08:56:53;;;;;;;108.28;56.05;;;5.40;99.90;;;;;;5073476;28;20372;-75
2022/12/03 08:59:24;;;;;;;248.23;131.73;;;5.50;99.90;;;;;;5073836;28;20020;-76
2022/12/03 09:01:52;;;;;;;102.80;59.55;;;5.60;99.90;;;;;;5073628;28;20442;-76
2022/12/03 09:04:37;;;;;;;118.70;57.15;;;5.70;99.90;;;;;;5072183;28;20037;-76
2022/12/03 09:07:03;;;;;;;180.13;87.30;;;5.80;99.90;;;;;;5070540;28;20024;-76
2022/12/03 09:09:29;;;;;;;103.32;51.45;;;5.80;99.90;;;;;;5073512;28;20463;-76
2022/12/03 09:11:55;;;;;;;101.65;53.47;;;6.00;99.90;;;;;;5074171;28;20104;-77
2022/12/03 09:14:22;;;;;;;108.90;56.67;;;6.30;99.90;;;;;;5073299;28;20082;-78
2022/12/03 09:16:54;;;;;;;111.18;61.40;;;6.30;99.90;;;;;;5074229;28;20063;-76
2022/12/03 09:19:23;;;;;;;;;;;6.40;99.90;;;;;;5074264;28;20383;-77
2022/12/03 09:21:49;;;;;;;186.88;112.85;;;6.50;99.90;;;;;;5074092;28;19900;-77
2022/12/03 09:24:15;;;;;;;179.90;111.13;;;6.50;99.90;;;;;;5073540;28;20109;-76
2022/12/03 09:26:41;;;;;;;126.10;71.25;;;6.60;99.90;;;;;;5066625;28;20108;-76
2022/12/03 09:29:06;;;;;;;160.10;89.35;;;7.00;99.90;;;;;;5065888;28;20078;-76
2022/12/03 09:31:33;;;;;;;112.70;63.35;;;7.10;99.90;;;;;;5061468;28;20017;-77
2022/12/03 09:34:00;;;;;;;129.90;72.90;;;7.10;99.90;;;;;;5060012;28;20051;-76
2022/12/03 09:36:26;;;;;;;107.35;67.25;;;7.40;99.90;;;;;;5060371;28;20032;-76
2022/12/03 09:38:52;;;;;;;96.75;58.28;;;7.20;99.90;;;;;;5062488;28;20029;-76
2022/12/03 09:41:18;;;;;;;81.22;46.58;;;7.50;99.90;;;;;;5066909;28;20032;-77
2022/12/03 09:43:44;;;;;;;99.30;54.33;;;7.40;99.90;;;;;;5064050;28;20092;-77
2022/12/03 09:46:10;;;;;;;140.85;77.07;;;7.20;99.90;;;;;;5062050;28;20024;-77
2022/12/03 09:48:36;;;;;;;400.48;208.88;;;7.60;99.90;;;;;;5056054;28;20033;-75
2022/12/03 09:51:02;;;;;;;277.35;135.40;;;7.80;99.90;;;;;;5062038;28;20038;-76
2022/12/03 09:53:28;;;;;;;265.10;128.63;;;8.00;99.90;;;;;;5066159;28;20032;-77
2022/12/03 09:55:59;;;;;;;114.20;64.50;;;8.50;99.90;;;;;;5064173;28;20094;-76
2022/12/03 09:58:26;;;;;;;119.60;70.97;;;8.50;99.90;;;;;;5065525;28;20052;-77
2022/12/03 10:00:52;;;;;;;169.63;74.22;;;8.80;99.90;;;;;;5069313;28;20029;-78
2022/12/03 10:03:22;;;;;;;100.13;50.03;;;9.10;99.90;;;;;;5073332;28;20017;-76
2022/12/03 10:05:49;;;;;;;85.40;46.50;;;9.00;99.90;;;;;;5073472;28;20451;-75
2022/12/03 10:08:19;;;;;;;80.43;46.78;;;9.10;99.90;;;;;;5073460;28;20463;-76
2022/12/03 10:10:50;;;;;;;130.20;66.05;;;9.30;99.90;;;;;;5073580;28;20051;-77
2022/12/03 10:13:30;;;;;;;95.50;59.20;;;9.40;99.90;;;;;;5073585;28;20439;-76
2022/12/03 10:15:58;;;;;;;94.75;55.83;;;9.40;99.90;;;;;;5072531;28;20048;-75
2022/12/03 10:18:27;;;;;;;93.25;50.63;;;8.90;99.90;;;;;;5073241;28;20021;-77
2022/12/03 10:20:53;;;;;;;113.88;57.75;;;8.90;99.90;;;;;;5073596;28;20016;-76
2022/12/03 10:23:28;;;;;;;84.30;45.95;;;9.60;99.90;;;;;;5073460;28;20069;-78
2022/12/03 10:25:55;;;;;;;91.30;50.83;;;9.50;99.90;;;;;;5072989;28;20059;-76
2022/12/03 10:28:37;;;;;;;122.28;61.50;;;9.70;99.90;;;;;;5077821;28;20443;-75
2022/12/03 10:31:07;;;;;;;115.38;57.90;;;10.00;99.90;;;;;;5077469;28;20324;-76
2022/12/03 10:33:36;;;;;;;156.48;79.63;;;10.40;99.90;;;;;;5077262;28;20023;-77
2022/12/03 10:36:24;;;;;;;142.82;71.63;;;10.60;99.90;;;;;;5076147;28;20405;-77
2022/12/03 10:39:10;;;;;;;100.93;55.40;;;10.10;99.90;;;;;;5077426;28;20130;-77
2022/12/03 10:41:37;;;;;;;115.75;64.70;;;10.20;99.90;;;;;;5075948;28;20348;-75
2022/12/03 10:44:22;;;;;;;137.60;69.22;;;10.50;99.90;;;;;;5077049;28;20048;-74
2022/12/03 10:47:06;;;;;;;121.40;66.20;;;10.50;99.90;;;;;;5077069;28;20028;-76
2022/12/03 10:49:31;;;;;;;132.60;76.40;;;10.80;99.90;;;;;;5077200;28;20017;-76
2022/12/03 10:51:57;;;;;;;82.00;41.95;;;11.00;99.90;;;;;;5077019;28;20024;-78
2022/12/03 10:54:25;;;;;;;89.47;49.95;;;10.90;99.90;;;;;;5076856;28;20350;-76
2022/12/03 10:56:51;;;;;;;113.93;61.53;;;11.00;99.90;;;;;;5077013;28;20044;-76
2022/12/03 10:59:23;;;;;;;75.82;42.95;;;11.10;99.90;;;;;;5075736;28;20070;-75
2022/12/03 11:01:49;;;;;;;82.20;46.43;;;10.80;99.00;;;;;;5075465;28;20111;-75
2022/12/03 11:04:29;;;;;;;76.20;41.53;;;10.80;99.70;;;;;;5076643;28;20289;-76
2022/12/03 11:06:55;;;;;;;88.07;47.50;;;10.70;99.90;;;;;;5076738;28;20032;-76
2022/12/03 11:09:31;;;;;;;93.28;47.13;;;10.60;99.90;;;;;;5076355;28;20027;-75
2022/12/03 11:12:18;;;;;;;91.22;47.20;;;10.70;99.90;;;;;;5076987;28;20429;-77
2022/12/03 11:14:50;;;;;;;150.85;65.03;;;11.00;99.90;;;;;;5076320;28;20029;-75
2022/12/03 11:17:50;;;;;;;83.90;43.88;;;11.00;99.90;;;;;;5076752;28;20025;-79
2022/12/03 11:20:19;;;;;;;79.57;43.58;;;11.60;99.80;;;;;;5076575;28;20028;-75
2022/12/03 11:22:47;;;;;;;79.53;44.88;;;11.60;98.50;;;;;;5076085;28;20452;-78
2022/12/03 11:25:43;;;;;;;101.03;49.55;;;11.40;97.90;;;;;;5076126;28;20031;-76
2022/12/03 11:28:12;;;;;;;128.10;63.20;;;10.80;99.70;;;;;;5076322;28;20059;-77
2022/12/03 11:31:01;;;;;;;96.05;51.50;;;10.20;99.90;;;;;;5076199;28;20021;-76
2022/12/03 11:33:32;;;;;;;168.63;75.75;;;10.00;99.90;;;;;;5076263;28;20462;-76
2022/12/03 11:36:04;;;;;;;178.13;78.50;;;9.90;99.90;;;;;;5076101;28;20531;-78
2022/12/03 11:38:36;;;;;;;;;;;9.90;99.90;;;;;;5076656;28;20107;-77
2022/12/03 11:41:25;;;;;;;99.63;52.57;;;10.00;99.90;;;;;;5076228;28;19904;-76
2022/12/03 11:43:56;;;;;;;120.05;60.80;;;10.10;99.90;;;;;;5075563;28;20367;-78
2022/12/03 11:46:37;;;;;;;99.53;49.30;;;10.30;99.90;;;;;;5075834;28;20096;-76
2022/12/03 11:49:27;;;;;;;100.82;53.13;;;10.30;99.90;;;;;;5076053;28;20028;-78
2022/12/03 11:51:53;;;;;;;100.50;56.38;;;10.00;99.90;;;;;;5075778;28;20028;-77
2022/12/03 11:54:22;;;;;;;75.80;40.38;;;10.00;99.90;;;;;;5075999;28;20024;-77
2022/12/03 11:56:49;;;;;;;76.95;42.70;;;10.00;99.90;;;;;;5075800;28;20462;-77
2022/12/03 11:59:17;;;;;;;87.60;47.17;;;9.80;99.90;;;;;;5075844;28;20150;-77
2022/12/03 12:01:43;;;;;;;86.72;44.28;;;9.70;99.90;;;;;;5075453;28;20095;-77
2022/12/03 12:04:33;;;;;;;73.68;42.03;;;9.50;99.90;;;;;;5075445;28;20024;-77
2022/12/03 12:06:59;;;;;;;77.07;43.72;;;9.40;99.90;;;;;;5075775;28;20089;-76
2022/12/03 12:09:55;;;;;;;75.93;38.78;;;9.40;99.90;;;;;;5075360;28;20078;-77
2022/12/03 12:12:43;;;;;;;97.45;51.33;;;9.20;99.90;;;;;;5075446;28;20024;-77
2022/12/03 12:15:42;;;;;;;85.32;43.78;;;9.20;99.90;;;;;;5074890;28;20436;-77
2022/12/03 12:18:33;;;;;;;83.80;46.72;;;9.00;99.90;;;;;;5075306;28;20099;-77
2022/12/03 12:21:36;;;;;;;117.93;58.15;;;9.10;99.90;;;;;;5075472;28;20048;-76
2022/12/03 12:24:40;;;;;;;158.88;71.78;;;9.00;99.90;;;;;;5074920;28;20029;-77
2022/12/03 12:27:07;;;;;;;91.43;49.95;;;9.00;99.90;;;;;;5074991;28;20082;-77
2022/12/03 12:29:34;;;;;;;110.35;56.70;;;9.00;99.90;;;;;;5075626;28;20515;-77
2022/12/03 12:32:15;;;;;;;101.80;52.03;;;8.90;99.90;;;;;;5074723;28;20032;-77
2022/12/03 12:34:44;;;;;;;108.17;58.10;;;9.00;99.90;;;;;;5075581;28;20039;-76
2022/12/03 12:37:13;;;;;;;143.30;70.70;;;8.90;99.90;;;;;;5074958;28;20025;-78
2022/12/03 12:39:39;;;;;;;105.97;56.97;;;9.00;99.90;;;;;;5075109;28;20031;-77
2022/12/03 12:42:28;;;;;;;131.00;63.15;;;9.00;99.90;;;;;;5073669;28;20024;-77
2022/12/03 12:44:59;;;;;;;109.68;57.53;;;9.20;99.90;;;;;;5074986;28;20028;-79
2022/12/03 12:47:27;;;;;;;230.70;98.43;;;9.20;99.90;;;;;;5075044;28;20024;-77
2022/12/03 12:49:54;;;;;;;192.75;83.57;;;9.20;99.90;;;;;;5074030;28;20025;-76
2022/12/03 12:52:20;;;;;;;122.25;58.30;;;9.30;99.90;;;;;;5074395;28;20020;-78
2022/12/03 12:54:46;;;;;;;370.50;76.10;;;9.40;99.90;;;;;;5074178;28;20028;-76
2022/12/03 12:57:15;;;;;;;164.98;78.30;;;9.50;99.90;;;;;;5074154;28;20029;-76
2022/12/03 12:59:52;;;;;;;147.50;68.15;;;9.50;99.90;;;;;;5073061;28;20059;-78
2022/12/03 13:02:37;;;;;;;144.60;70.75;;;9.40;99.90;;;;;;5070970;28;20048;-78
2022/12/03 13:05:03;;;;;;;140.00;70.22;;;9.40;99.90;;;;;;5072761;28;20029;-75